Time;durP1;ratioP1;P1;durP2;ratioP2;P2;SDS_P1;SDS_P2;PMS_P1;PMS_P2;Temp;Humidity;BMP_temperature;BMP_pressure;BME280_temperature;BME280_humidity;BME280_pressure;Samples;Min_cycle;Max_cycle;Signal;HPM_P1;HPM_P2
2021/07/11 00:04:04;;;;;;;5.43;2.85;;;18.10;99.90;;;;;;20487219;28;20043;-47
2021/07/11 00:14:05;;;;;;;6.53;2.22;;;18.00;99.90;;;;;;20482620;28;20044;-47
2021/07/11 00:24:07;;;;;;;5.60;2.80;;;18.00;99.90;;;;;;20493595;28;20047;-48
2021/07/11 00:34:09;;;;;;;8.10;3.35;;;18.00;99.90;;;;;;20478048;28;20074;-47
2021/07/11 00:44:11;;;;;;;6.47;2.85;;;17.90;99.90;;;;;;20483733;28;20050;-48
2021/07/11 00:54:13;;;;;;;5.97;3.00;;;17.90;99.90;;;;;;20488562;28;20039;-47
2021/07/11 01:04:21;;;;;;;6.65;3.00;;;17.80;99.90;;;;;;20493460;28;20047;-48
2021/07/11 01:14:23;;;;;;;5.32;2.17;;;17.90;99.90;;;;;;20496912;28;20039;-48
2021/07/11 01:24:31;;;;;;;4.70;3.03;;;18.00;99.90;;;;;;20506794;28;20047;-48
2021/07/11 01:34:32;;;;;;;6.05;3.08;;;18.00;99.90;;;;;;20528011;28;20236;-47
2021/07/11 01:44:34;;;;;;;5.80;3.00;;;18.00;99.90;;;;;;20494187;28;20046;-48
2021/07/11 01:54:37;;;;;;;5.45;2.30;;;18.00;99.90;;;;;;20502429;28;20043;-48
2021/07/11 02:04:38;;;;;;;5.20;2.15;;;18.00;99.90;;;;;;20499678;28;20088;-48
2021/07/11 02:14:42;;;;;;;5.13;1.92;;;18.10;99.90;;;;;;20505529;28;20039;-47
2021/07/11 02:24:45;;;;;;;7.43;2.67;;;18.10;99.90;;;;;;20496443;28;20055;-48
2021/07/11 02:34:47;;;;;;;5.88;2.25;;;18.00;99.90;;;;;;21430423;23;20062;-45
2021/07/11 02:44:52;;;;;;;6.45;2.78;;;18.00;99.90;;;;;;20443443;28;20047;-45
2021/07/11 02:54:59;;;;;;;6.90;3.10;;;17.90;99.90;;;;;;20454035;28;20035;-46
2021/07/11 03:05:01;;;;;;;4.63;2.20;;;17.80;99.90;;;;;;20462318;28;20046;-45
2021/07/11 03:15:03;;;;;;;4.32;1.80;;;17.90;99.90;;;;;;20460175;28;20042;-46
2021/07/11 03:25:08;;;;;;;6.95;2.80;;;17.80;99.90;;;;;;20462502;28;20051;-46
2021/07/11 03:35:12;;;;;;;4.45;2.33;;;17.80;99.90;;;;;;20459129;28;20050;-45
2021/07/11 03:45:15;;;;;;;3.67;1.80;;;17.80;99.90;;;;;;20459207;28;20166;-46
2021/07/11 03:55:18;;;;;;;5.28;2.40;;;17.80;99.90;;;;;;20459260;28;20046;-46
2021/07/11 04:05:26;;;;;;;5.18;2.00;;;17.80;99.90;;;;;;20458676;28;20053;-46
2021/07/11 04:15:29;;;;;;;;;;;17.80;99.90;;;;;;20459459;28;20041;-46
2021/07/11 04:25:38;;;;;;;7.95;2.50;;;17.80;99.90;;;;;;20458283;28;19972;-46
2021/07/11 04:35:40;;;;;;;8.65;2.63;;;17.60;99.90;;;;;;20458627;28;20055;-45
2021/07/11 04:45:41;;;;;;;5.88;3.10;;;17.60;99.90;;;;;;20472312;28;20039;-46
2021/07/11 04:55:46;;;;;;;7.20;2.50;;;17.70;99.90;;;;;;20473017;28;20035;-45
2021/07/11 05:05:48;;;;;;;6.50;2.92;;;17.70;99.90;;;;;;20471713;28;20054;-45
2021/07/11 05:15:49;;;;;;;6.68;3.78;;;17.70;99.90;;;;;;20472444;28;20046;-46
2021/07/11 05:25:52;;;;;;;6.50;2.72;;;17.70;99.90;;;;;;20469217;28;20283;-46
2021/07/11 05:35:53;;;;;;;3.80;1.92;;;17.80;99.90;;;;;;20468160;28;20039;-45
2021/07/11 05:45:55;;;;;;;6.95;3.25;;;17.80;99.90;;;;;;20466537;28;20098;-46
2021/07/11 05:55:56;;;;;;;5.35;2.42;;;17.80;99.90;;;;;;20466607;28;20047;-45
2021/07/11 06:05:57;;;;;;;4.88;2.65;;;17.90;99.90;;;;;;20461297;28;20054;-45
2021/07/11 06:15:58;;;;;;;5.47;2.33;;;17.90;99.90;;;;;;20460766;28;20032;-45
2021/07/11 06:25:59;;;;;;;4.35;2.72;;;18.00;99.90;;;;;;20467211;28;20071;-46
2021/07/11 06:36:00;;;;;;;7.38;3.03;;;18.00;99.90;;;;;;20468576;28;20046;-47
2021/07/11 06:46:02;;;;;;;7.05;2.90;;;18.10;99.90;;;;;;20456266;28;20036;-46
2021/07/11 06:56:03;;;;;;;10.13;2.60;;;18.00;99.90;;;;;;20424391;28;20035;-46
2021/07/11 07:06:09;;;;;;;5.22;2.65;;;18.00;99.90;;;;;;20453829;28;20046;-46
2021/07/11 07:16:10;;;;;;;6.80;2.80;;;18.00;99.90;;;;;;20444975;28;20089;-45
2021/07/11 07:26:11;;;;;;;6.95;3.45;;;18.10;99.90;;;;;;20441854;28;20039;-46
2021/07/11 07:36:13;;;;;;;7.38;3.05;;;18.10;99.90;;;;;;20451767;28;20047;-46
2021/07/11 07:46:16;;;;;;;6.75;3.42;;;18.20;99.90;;;;;;20459922;28;20059;-46
2021/07/11 07:56:17;;;;;;;8.95;4.20;;;18.00;99.90;;;;;;20492469;28;20047;-46
2021/07/11 08:06:18;;;;;;;8.00;4.15;;;18.10;99.90;;;;;;20462759;28;20047;-46
2021/07/11 08:16:20;;;;;;;13.43;5.15;;;18.40;99.90;;;;;;20470849;28;20046;-47
2021/07/11 08:26:21;;;;;;;10.70;5.30;;;18.60;99.90;;;;;;20475601;28;20049;-47
2021/07/11 08:36:22;;;;;;;16.08;5.90;;;18.60;99.90;;;;;;20472278;28;20047;-47
2021/07/11 08:46:23;;;;;;;12.07;5.50;;;18.60;99.90;;;;;;20470267;28;20143;-45
2021/07/11 08:56:26;;;;;;;13.00;5.40;;;18.40;99.90;;;;;;20470373;28;20110;-45
2021/07/11 09:06:37;;;;;;;16.48;6.03;;;18.70;99.90;;;;;;20425682;28;20051;-45
2021/07/11 09:16:44;;;;;;;12.88;5.25;;;19.20;99.90;;;;;;20465820;28;20039;-45
2021/07/11 09:26:45;;;;;;;13.05;6.13;;;19.60;99.90;;;;;;20454492;28;20524;-48
2021/07/11 09:37:07;;;;;;;17.08;5.20;;;20.00;99.90;;;;;;20459221;28;20047;-48
2021/07/11 09:47:20;;;;;;;10.45;5.25;;;19.80;99.90;;;;;;20447627;28;20047;-45
2021/07/11 09:57:30;;;;;;;11.60;5.82;;;19.90;99.90;;;;;;20459516;28;20043;-47
2021/07/11 10:07:35;;;;;;;11.63;4.50;;;20.10;99.90;;;;;;20454081;28;20050;-46
2021/07/11 10:17:42;;;;;;;10.90;4.75;;;20.30;99.90;;;;;;20457862;28;20047;-47
2021/07/11 10:27:45;;;;;;;12.18;4.75;;;20.10;99.90;;;;;;20457902;28;20047;-47
2021/07/11 10:37:54;;;;;;;10.80;4.53;;;20.20;99.90;;;;;;20460121;28;20039;-47
2021/07/11 10:48:04;;;;;;;7.60;4.10;;;20.00;99.90;;;;;;20459235;28;20047;-46
2021/07/11 10:58:16;;;;;;;9.88;3.88;;;20.20;99.90;;;;;;20456617;28;20043;-47
2021/07/11 11:08:19;;;;;;;10.80;3.78;;;20.00;99.90;;;;;;20452744;28;20057;-47
2021/07/11 11:18:23;;;;;;;9.18;4.85;;;20.90;99.90;;;;;;20452896;28;20278;-46
2021/07/11 11:28:30;;;;;;;7.03;3.72;;;21.50;99.90;;;;;;20445250;28;20055;-47
2021/07/11 11:38:40;;;;;;;11.87;6.03;;;21.70;99.90;;;;;;20447499;28;20035;-46
2021/07/11 11:48:41;;;;;;;7.50;3.03;;;22.90;99.90;;;;;;20395554;28;20047;-47
2021/07/11 11:58:43;;;;;;;7.68;3.60;;;23.30;99.90;;;;;;20447208;28;20110;-47
2021/07/11 12:08:46;;;;;;;7.68;3.53;;;23.60;99.90;;;;;;20444240;28;20047;-47
2021/07/11 12:18:49;;;;;;;5.82;2.72;;;23.90;99.90;;;;;;20446934;28;20047;-47
2021/07/11 12:28:52;;;;;;;9.30;3.60;;;23.90;99.90;;;;;;20453581;28;20044;-46
2021/07/11 12:38:53;;;;;;;4.97;2.95;;;24.00;99.90;;;;;;20457346;28;20054;-47
2021/07/11 12:49:06;;;;;;;4.70;2.53;;;23.90;99.90;;;;;;20458021;28;20067;-46
2021/07/11 12:59:07;;;;;;;5.70;2.95;;;23.40;99.90;;;;;;20459028;28;20039;-47
2021/07/11 13:09:10;;;;;;;5.18;3.17;;;22.80;99.90;;;;;;20471230;28;20368;-47
2021/07/11 13:19:11;;;;;;;10.85;4.72;;;22.60;99.90;;;;;;20470370;28;20182;-47
2021/07/11 13:29:13;;;;;;;10.32;4.88;;;22.50;99.90;;;;;;20470898;28;20047;-46
2021/07/11 13:39:14;;;;;;;10.30;5.40;;;22.30;99.90;;;;;;20469416;28;20078;-46
2021/07/11 13:49:15;;;;;;;11.02;4.85;;;22.30;99.90;;;;;;20467526;28;20142;-46
2021/07/11 13:59:18;;;;;;;9.57;5.05;;;22.70;99.90;;;;;;20468615;28;20042;-46
2021/07/11 14:09:19;;;;;;;8.23;3.65;;;22.90;99.90;;;;;;20466194;28;20047;-47
2021/07/11 14:19:20;;;;;;;7.82;3.38;;;22.50;99.90;;;;;;20465210;28;20043;-47
2021/07/11 14:29:22;;;;;;;6.18;2.90;;;22.40;99.90;;;;;;20462211;28;20049;-46
2021/07/11 14:39:23;;;;;;;7.72;3.63;;;22.50;99.90;;;;;;20430210;28;20051;-46
2021/07/11 14:49:24;;;;;;;5.10;2.67;;;22.40;99.90;;;;;;20408115;28;20074;-46
2021/07/11 14:59:26;;;;;;;4.68;2.38;;;22.50;99.90;;;;;;20455761;28;20035;-46
2021/07/11 15:09:28;;;;;;;3.63;2.00;;;23.00;99.90;;;;;;20457559;28;20058;-46
2021/07/11 15:19:32;;;;;;;2.22;1.10;;;23.30;99.90;;;;;;20450812;28;20035;-46
2021/07/11 15:29:35;;;;;;;3.00;1.55;;;23.60;99.90;;;;;;20457974;28;20039;-46
2021/07/11 15:39:38;;;;;;;3.72;1.40;;;23.30;99.90;;;;;;20446354;28;20122;-46
2021/07/11 15:49:39;;;;;;;5.18;2.50;;;23.20;99.90;;;;;;20423335;28;20047;-47
2021/07/11 15:59:40;;;;;;;4.18;1.98;;;23.40;99.90;;;;;;20441475;28;20040;-47
2021/07/11 16:09:41;;;;;;;4.60;2.60;;;23.20;99.90;;;;;;20437334;28;20051;-47
2021/07/11 16:19:42;;;;;;;3.03;1.77;;;23.40;99.90;;;;;;20439038;28;20058;-47
2021/07/11 16:29:44;;;;;;;3.33;1.80;;;23.30;99.90;;;;;;20448759;28;20149;-47
2021/07/11 16:39:45;;;;;;;5.68;2.85;;;23.20;99.90;;;;;;20466470;28;20031;-46
2021/07/11 16:49:47;;;;;;;8.68;4.45;;;23.00;99.90;;;;;;20464154;28;20059;-47
2021/07/11 16:59:48;;;;;;;9.43;4.05;;;22.60;99.90;;;;;;20457517;28;21156;-47
2021/07/11 17:09:49;;;;;;;5.53;2.30;;;22.50;99.90;;;;;;20455989;28;20051;-47
2021/07/11 17:19:51;;;;;;;10.38;3.90;;;22.20;99.90;;;;;;20456018;28;20182;-47
2021/07/11 17:29:52;;;;;;;7.18;3.08;;;22.20;99.90;;;;;;20454217;28;20050;-47
2021/07/11 17:39:54;;;;;;;6.72;2.63;;;21.70;99.90;;;;;;20456953;28;20051;-47
2021/07/11 17:49:55;;;;;;;4.93;2.22;;;21.30;99.90;;;;;;20440774;28;20093;-47
2021/07/11 17:59:56;;;;;;;5.72;2.85;;;21.10;99.90;;;;;;20445117;28;20086;-47
2021/07/11 18:09:57;;;;;;;7.40;3.53;;;20.90;99.90;;;;;;20451540;28;20047;-47
2021/07/11 18:19:59;;;;;;;5.30;2.63;;;20.80;99.90;;;;;;20438371;28;20046;-47
2021/07/11 18:30:01;;;;;;;8.48;3.38;;;20.70;99.90;;;;;;20430398;28;20357;-47
2021/07/11 18:40:04;;;;;;;7.63;3.05;;;20.60;99.90;;;;;;20431235;28;20047;-47
2021/07/11 18:50:07;;;;;;;8.60;3.67;;;20.40;99.90;;;;;;20386268;28;20091;-47
2021/07/11 19:00:12;;;;;;;5.80;2.50;;;20.30;99.90;;;;;;20438770;28;20993;-47
2021/07/11 19:10:16;;;;;;;5.32;2.50;;;20.10;99.90;;;;;;20443476;28;20142;-47
2021/07/11 19:20:19;;;;;;;5.85;2.45;;;20.00;99.90;;;;;;20440203;28;20062;-47
2021/07/11 19:30:20;;;;;;;8.43;3.47;;;19.90;99.90;;;;;;20441963;28;20422;-47
2021/07/11 19:40:25;;;;;;;13.73;4.18;;;19.90;99.90;;;;;;20435836;28;20043;-47
2021/07/11 19:50:27;;;;;;;7.68;4.70;;;19.80;99.90;;;;;;20442589;28;20035;-47
2021/07/11 20:00:29;;;;;;;10.68;5.25;;;19.60;99.90;;;;;;20441349;28;20537;-45
2021/07/11 20:10:30;;;;;;;11.70;4.45;;;19.50;99.90;;;;;;20438633;28;20031;-47
2021/07/11 20:20:32;;;;;;;12.38;4.82;;;19.30;99.90;;;;;;20442596;28;20423;-45
2021/07/11 20:30:33;;;;;;;15.45;5.65;;;19.20;99.90;;;;;;20445793;28;20415;-45
2021/07/11 20:40:34;;;;;;;11.20;5.32;;;19.20;99.90;;;;;;20445209;28;21622;-47
2021/07/11 20:50:38;;;;;;;14.57;5.80;;;19.10;99.90;;;;;;20444642;28;20027;-45
2021/07/11 21:00:44;;;;;;;9.45;4.80;;;18.90;99.90;;;;;;20451829;28;20446;-47
2021/07/11 21:10:47;;;;;;;13.10;5.30;;;18.80;99.90;;;;;;20451003;28;20110;-47
2021/07/11 21:20:48;;;;;;;11.60;4.53;;;18.70;99.90;;;;;;20450553;28;20047;-45
2021/07/11 21:30:50;;;;;;;15.52;5.93;;;18.50;99.90;;;;;;20462516;28;20398;-45
2021/07/11 21:40:51;;;;;;;11.07;4.45;;;18.40;99.90;;;;;;20461588;28;20463;-45
2021/07/11 21:50:52;;;;;;;13.88;5.57;;;18.30;99.90;;;;;;20463922;28;20541;-47
2021/07/11 22:00:54;;;;;;;17.52;6.80;;;18.10;99.90;;;;;;20459706;28;20071;-47
2021/07/11 22:10:56;;;;;;;16.08;5.47;;;18.10;99.90;;;;;;20461275;28;20071;-47
2021/07/11 22:20:57;;;;;;;13.57;5.75;;;18.10;99.90;;;;;;20461394;28;20035;-47
2021/07/11 22:30:59;;;;;;;14.77;4.63;;;17.90;99.90;;;;;;20459524;28;20062;-47
2021/07/11 22:41:00;;;;;;;14.32;5.50;;;17.80;99.90;;;;;;20457388;28;20115;-47
2021/07/11 22:51:01;;;;;;;11.63;5.63;;;17.70;99.90;;;;;;20454771;28;20388;-47
2021/07/11 23:01:03;;;;;;;19.20;7.15;;;17.50;99.90;;;;;;20455163;28;20042;-46
2021/07/11 23:11:05;;;;;;;16.77;6.55;;;17.50;99.90;;;;;;20453950;28;20062;-47
2021/07/11 23:21:06;;;;;;;15.63;6.68;;;17.40;99.90;;;;;;20453903;28;20420;-47
2021/07/11 23:31:08;;;;;;;13.57;5.90;;;17.40;99.90;;;;;;20451256;28;20473;-47
2021/07/11 23:41:09;;;;;;;18.75;6.38;;;17.40;99.90;;;;;;20451409;28;20303;-46
2021/07/11 23:51:10;;;;;;;16.77;7.38;;;17.40;99.90;;;;;;20458112;28;20110;-47
